Leech Lake, Minnesota
Current Conditions -  °F | °C
As of 6:35 AM on Saturday 25 Oct 2014 (Local Time) from KY49 Reporting Station
Clear Clear  
Wind Chill: 38°   Ceiling: Unl
Heat Index: 43°   Visibility: 10mi
Dew Point: 31°   Wind: 8mph
Humidity: 64%   Direction: 280°W
Pressure: 29.96"   Gusts: NA
Location:  47.0507°N, 94.6083°W
Report Text: KY49 251135Z AUTO 28007KT 10SM CLR 06/00 A2996 RMK AO2 T00591005
Loading
Personal Weather Stations






























Interactive Weather Map
Tropical Storm Tracking
New forecast layout! Learn more

10-Day Weather Forecast

Advertisements
Track Severe Weather on mobile